Latest  Newer  Older  Last 2 hours slideshow  Last 24 hours slideshow  Refresh every 5 minutes 
Current image  Latest image  Rain/snow radar  Cloud coverage sat images 

All time is UTC (add 2 hours to UTC in wintertime, 3 hours to UTC in DST for Latvia local time)

2021/08/01 03:50 EVRA 010350Z 19005KT 9999 SCT049CB 16/15 Q1002 NOSIG
2021/08/01 03:50 EVLA 010350Z AUTO 23019KT 9999 FEW020/// BKN023/// 18/14 Q1001
2021/08/01 03:50 EVVA 010350Z AUTO 16011KT 9999 -RA FEW015 16/15 Q0999
2021/08/01 03:50 EYKA 010350Z 22007KT CAVOK 17/14 Q1006
2021/08/01 03:50 EYPA 010350Z 24010G20KT 200V270 9999 SCT019CB BKN092 18/15 Q1003
2021/08/01 03:50 EYSA 010350Z 20007KT CAVOK 16/15 Q1004 BLU NOSIG
2021/08/01 03:50 EYVI 010350Z 19008KT CAVOK 16/15 Q1006 NOSIG
2021/07/31 07:50 EEKA 310750Z 22007KT 150V280 9999 SCT021 20/16 Q0998
2021/08/01 03:50 EEKE 010350Z AUTO 21012KT 9999NDV -RA NSC 15/14 Q0999

2021/08/01 03:50 EETN 010350Z 17007KT 9999 OVC007 15/15 Q0999 NOSIG
2021/08/01 03:50 EETU 010350Z AUTO 18005KT 9999 FEW096/// 15/15 Q1002
   RIGA AIRPORT     EVRA               56 55N  023 58E   10   X     T          6 LV
   LIEPAJA INTL     EVLA        26406  56 31N  021 06E    4   X                8 LV
   VENTPILS         EVVA               57 21N  021 33E    6   X                8 LV
   KAUNAS           EYKA               54 54N  023 55E   77   X     T          6 LT
   PALANGA INTL     EYPA               55 55N  021 03E   10   X                6 LT
   SIAULIAI INTL    EYSA               55 54N  023 24E  135   X     T          6 LT
   VILNIUS INTL     EYVI        26730  54 38N  025 17E  197   X     T          6 LT
   KARDLA           EEKA        26116  58 59N  022 50E    4   X                8 EE
   KURESSAARE       EEKE               58 14N  022 31E    4   X                8 EE
   PARNU            EEPU               58 25N  024 28E   14   X                8 EE
   TALLINN          EETN        26038  59 24N  024 49E   40   X     T          8 EE
   TARTU            EETU               58 19N  026 41E   67   X                8 EE